sensor_id;sensor_type;location;lat;lon;timestamp;P1;durP1;ratioP1;P2;durP2;ratioP2
44842;SDS011;31884;52.538;13.820;2023-09-30T00:00:58;4.43;;;0.80;;
44842;SDS011;31884;52.538;13.820;2023-09-30T00:03:24;4.60;;;1.10;;
44842;SDS011;31884;52.538;13.820;2023-09-30T00:05:49;1.30;;;0.80;;
44842;SDS011;31884;52.538;13.820;2023-09-30T00:08:15;2.50;;;1.25;;
44842;SDS011;31884;52.538;13.820;2023-09-30T00:10:40;4.20;;;1.00;;
44842;SDS011;31884;52.538;13.820;2023-09-30T00:13:06;3.42;;;1.00;;
44842;SDS011;31884;52.538;13.820;2023-09-30T00:15:34;2.08;;;0.85;;
44842;SDS011;31884;52.538;13.820;2023-09-30T00:18:00;3.53;;;1.15;;
44842;SDS011;31884;52.538;13.820;2023-09-30T00:20:26;3.83;;;0.88;;
44842;SDS011;31884;52.538;13.820;2023-09-30T00:22:55;2.75;;;0.80;;
44842;SDS011;31884;52.538;13.820;2023-09-30T00:25:20;2.38;;;0.80;;
44842;SDS011;31884;52.538;13.820;2023-09-30T00:27:46;1.95;;;0.70;;
44842;SDS011;31884;52.538;13.820;2023-09-30T00:30:12;2.92;;;1.17;;
44842;SDS011;31884;52.538;13.820;2023-09-30T00:32:38;1.83;;;1.05;;
44842;SDS011;31884;52.538;13.820;2023-09-30T00:35:04;5.25;;;1.23;;
44842;SDS011;31884;52.538;13.820;2023-09-30T00:37:36;4.18;;;0.98;;
44842;SDS011;31884;52.538;13.820;2023-09-30T00:40:02;3.15;;;0.95;;
44842;SDS011;31884;52.538;13.820;2023-09-30T00:42:28;1.85;;;0.70;;
44842;SDS011;31884;52.538;13.820;2023-09-30T00:44:54;1.30;;;0.70;;
44842;SDS011;31884;52.538;13.820;2023-09-30T00:47:20;3.50;;;0.73;;
44842;SDS011;31884;52.538;13.820;2023-09-30T00:49:46;3.30;;;0.80;;
44842;SDS011;31884;52.538;13.820;2023-09-30T00:52:11;2.97;;;0.90;;
44842;SDS011;31884;52.538;13.820;2023-09-30T00:54:37;1.67;;;0.57;;
44842;SDS011;31884;52.538;13.820;2023-09-30T00:57:04;1.65;;;0.80;;
44842;SDS011;31884;52.538;13.820;2023-09-30T00:59:31;3.38;;;0.73;;
44842;SDS011;31884;52.538;13.820;2023-09-30T01:01:58;2.72;;;0.98;;
44842;SDS011;31884;52.538;13.820;2023-09-30T01:04:26;2.05;;;0.93;;
44842;SDS011;31884;52.538;13.820;2023-09-30T01:06:52;3.60;;;1.30;;
44842;SDS011;31884;52.538;13.820;2023-09-30T01:09:18;4.97;;;1.75;;
44842;SDS011;31884;52.538;13.820;2023-09-30T01:11:44;7.03;;;1.63;;
44842;SDS011;31884;52.538;13.820;2023-09-30T01:17:05;5.10;;;1.75;;
44842;SDS011;31884;52.538;13.820;2023-09-30T01:19:33;7.82;;;2.10;;
44842;SDS011;31884;52.538;13.820;2023-09-30T01:21:59;6.20;;;2.13;;
44842;SDS011;31884;52.538;13.820;2023-09-30T01:24:25;5.80;;;1.85;;
44842;SDS011;31884;52.538;13.820;2023-09-30T01:26:51;4.97;;;1.90;;
44842;SDS011;31884;52.538;13.820;2023-09-30T01:29:17;5.07;;;1.70;;
44842;SDS011;31884;52.538;13.820;2023-09-30T01:31:43;6.53;;;1.88;;
44842;SDS011;31884;52.538;13.820;2023-09-30T01:34:12;5.63;;;1.70;;
44842;SDS011;31884;52.538;13.820;2023-09-30T01:36:38;4.22;;;1.80;;
44842;SDS011;31884;52.538;13.820;2023-09-30T01:39:04;7.80;;;2.58;;
44842;SDS011;31884;52.538;13.820;2023-09-30T01:41:29;7.28;;;2.10;;
44842;SDS011;31884;52.538;13.820;2023-09-30T01:43:55;6.72;;;1.75;;
44842;SDS011;31884;52.538;13.820;2023-09-30T01:46:21;3.00;;;2.00;;
44842;SDS011;31884;52.538;13.820;2023-09-30T01:48:47;6.72;;;2.30;;
44842;SDS011;31884;52.538;13.820;2023-09-30T01:51:13;5.35;;;1.83;;
44842;SDS011;31884;52.538;13.820;2023-09-30T01:53:38;7.80;;;2.28;;
44842;SDS011;31884;52.538;13.820;2023-09-30T01:56:04;6.05;;;1.77;;
44842;SDS011;31884;52.538;13.820;2023-09-30T01:58:30;5.32;;;1.90;;
44842;SDS011;31884;52.538;13.820;2023-09-30T02:01:01;8.68;;;2.10;;
44842;SDS011;31884;52.538;13.820;2023-09-30T02:03:29;4.93;;;1.90;;
44842;SDS011;31884;52.538;13.820;2023-09-30T02:05:56;9.30;;;2.28;;
44842;SDS011;31884;52.538;13.820;2023-09-30T02:08:22;8.98;;;1.40;;
44842;SDS011;31884;52.538;13.820;2023-09-30T02:10:48;5.30;;;1.95;;
44842;SDS011;31884;52.538;13.820;2023-09-30T02:13:14;4.75;;;2.13;;
44842;SDS011;31884;52.538;13.820;2023-09-30T02:15:40;2.28;;;1.45;;
44842;SDS011;31884;52.538;13.820;2023-09-30T02:18:09;6.53;;;2.05;;
44842;SDS011;31884;52.538;13.820;2023-09-30T02:20:35;3.58;;;1.77;;
44842;SDS011;31884;52.538;13.820;2023-09-30T02:23:08;6.10;;;1.45;;
44842;SDS011;31884;52.538;13.820;2023-09-30T02:25:37;8.85;;;2.15;;
44842;SDS011;31884;52.538;13.820;2023-09-30T02:28:05;10.82;;;2.17;;
44842;SDS011;31884;52.538;13.820;2023-09-30T02:30:31;4.32;;;2.00;;
44842;SDS011;31884;52.538;13.820;2023-09-30T02:32:57;4.68;;;1.67;;
44842;SDS011;31884;52.538;13.820;2023-09-30T02:35:22;7.32;;;2.05;;
44842;SDS011;31884;52.538;13.820;2023-09-30T02:37:48;6.30;;;1.90;;
44842;SDS011;31884;52.538;13.820;2023-09-30T02:40:17;4.35;;;2.00;;
44842;SDS011;31884;52.538;13.820;2023-09-30T02:42:43;4.00;;;1.90;;
44842;SDS011;31884;52.538;13.820;2023-09-30T02:45:09;9.23;;;2.90;;
44842;SDS011;31884;52.538;13.820;2023-09-30T02:47:36;3.47;;;1.60;;
44842;SDS011;31884;52.538;13.820;2023-09-30T02:50:03;10.20;;;2.20;;
44842;SDS011;31884;52.538;13.820;2023-09-30T02:52:33;6.15;;;2.20;;
44842;SDS011;31884;52.538;13.820;2023-09-30T02:54:59;4.80;;;2.03;;
44842;SDS011;31884;52.538;13.820;2023-09-30T02:57:25;8.38;;;2.00;;
44842;SDS011;31884;52.538;13.820;2023-09-30T02:59:52;6.90;;;2.13;;
44842;SDS011;31884;52.538;13.820;2023-09-30T03:02:19;6.38;;;2.28;;
44842;SDS011;31884;52.538;13.820;2023-09-30T03:04:46;8.85;;;2.42;;
44842;SDS011;31884;52.538;13.820;2023-09-30T03:07:11;4.25;;;1.88;;
44842;SDS011;31884;52.538;13.820;2023-09-30T03:09:38;7.32;;;1.92;;
44842;SDS011;31884;52.538;13.820;2023-09-30T03:12:04;7.75;;;2.38;;
44842;SDS011;31884;52.538;13.820;2023-09-30T03:14:30;6.10;;;2.20;;
44842;SDS011;31884;52.538;13.820;2023-09-30T03:16:59;8.13;;;2.25;;
44842;SDS011;31884;52.538;13.820;2023-09-30T03:19:24;4.32;;;2.08;;
44842;SDS011;31884;52.538;13.820;2023-09-30T03:21:50;8.65;;;2.42;;
44842;SDS011;31884;52.538;13.820;2023-09-30T03:24:15;9.10;;;2.33;;
44842;SDS011;31884;52.538;13.820;2023-09-30T03:26:41;7.38;;;2.17;;
44842;SDS011;31884;52.538;13.820;2023-09-30T03:29:07;7.47;;;2.30;;
44842;SDS011;31884;52.538;13.820;2023-09-30T03:31:34;8.55;;;2.70;;
44842;SDS011;31884;52.538;13.820;2023-09-30T03:34:00;6.25;;;2.08;;
44842;SDS011;31884;52.538;13.820;2023-09-30T03:36:25;10.68;;;2.33;;
44842;SDS011;31884;52.538;13.820;2023-09-30T03:38:54;10.98;;;2.60;;
44842;SDS011;31884;52.538;13.820;2023-09-30T03:41:19;4.32;;;1.90;;
44842;SDS011;31884;52.538;13.820;2023-09-30T03:43:45;7.18;;;2.60;;
44842;SDS011;31884;52.538;13.820;2023-09-30T03:46:10;8.30;;;2.60;;
44842;SDS011;31884;52.538;13.820;2023-09-30T03:48:37;7.53;;;2.50;;
44842;SDS011;31884;52.538;13.820;2023-09-30T03:51:22;5.65;;;2.13;;
44842;SDS011;31884;52.538;13.820;2023-09-30T03:53:50;9.43;;;2.22;;
44842;SDS011;31884;52.538;13.820;2023-09-30T03:56:15;9.18;;;2.35;;
44842;SDS011;31884;52.538;13.820;2023-09-30T03:58:43;7.07;;;2.45;;
44842;SDS011;31884;52.538;13.820;2023-09-30T04:01:09;11.55;;;2.72;;
44842;SDS011;31884;52.538;13.820;2023-09-30T04:03:36;12.63;;;2.53;;
44842;SDS011;31884;52.538;13.820;2023-09-30T04:06:04;9.98;;;2.28;;
44842;SDS011;31884;52.538;13.820;2023-09-30T04:08:31;9.25;;;2.55;;
44842;SDS011;31884;52.538;13.820;2023-09-30T04:10:58;7.70;;;2.05;;
44842;SDS011;31884;52.538;13.820;2023-09-30T04:13:24;8.50;;;2.40;;
44842;SDS011;31884;52.538;13.820;2023-09-30T04:15:50;7.43;;;2.60;;
44842;SDS011;31884;52.538;13.820;2023-09-30T04:18:16;6.75;;;2.33;;
44842;SDS011;31884;52.538;13.820;2023-09-30T04:20:41;7.80;;;2.38;;
44842;SDS011;31884;52.538;13.820;2023-09-30T04:23:09;8.07;;;2.35;;
44842;SDS011;31884;52.538;13.820;2023-09-30T04:25:35;12.15;;;2.35;;
44842;SDS011;31884;52.538;13.820;2023-09-30T04:28:00;11.07;;;3.28;;
44842;SDS011;31884;52.538;13.820;2023-09-30T04:30:27;10.15;;;2.83;;
44842;SDS011;31884;52.538;13.820;2023-09-30T04:32:54;11.05;;;2.78;;
44842;SDS011;31884;52.538;13.820;2023-09-30T04:35:20;10.70;;;2.63;;
44842;SDS011;31884;52.538;13.820;2023-09-30T04:37:46;9.05;;;2.47;;
44842;SDS011;31884;52.538;13.820;2023-09-30T04:40:12;16.33;;;3.10;;
44842;SDS011;31884;52.538;13.820;2023-09-30T04:42:43;9.38;;;3.10;;
44842;SDS011;31884;52.538;13.820;2023-09-30T04:45:14;6.32;;;2.45;;
44842;SDS011;31884;52.538;13.820;2023-09-30T04:47:49;9.63;;;2.83;;
44842;SDS011;31884;52.538;13.820;2023-09-30T04:50:15;14.73;;;3.40;;
44842;SDS011;31884;52.538;13.820;2023-09-30T04:52:41;6.95;;;3.15;;
44842;SDS011;31884;52.538;13.820;2023-09-30T04:55:06;10.60;;;3.17;;
44842;SDS011;31884;52.538;13.820;2023-09-30T04:57:33;7.60;;;2.80;;
44842;SDS011;31884;52.538;13.820;2023-09-30T04:59:59;8.15;;;3.58;;
44842;SDS011;31884;52.538;13.820;2023-09-30T05:02:25;9.02;;;2.53;;
44842;SDS011;31884;52.538;13.820;2023-09-30T05:04:51;9.73;;;2.83;;
44842;SDS011;31884;52.538;13.820;2023-09-30T05:07:18;8.43;;;2.85;;
44842;SDS011;31884;52.538;13.820;2023-09-30T05:09:46;10.23;;;2.55;;
44842;SDS011;31884;52.538;13.820;2023-09-30T05:12:11;6.20;;;2.00;;
44842;SDS011;31884;52.538;13.820;2023-09-30T05:14:37;11.48;;;2.50;;
44842;SDS011;31884;52.538;13.820;2023-09-30T05:17:03;9.18;;;2.28;;
44842;SDS011;31884;52.538;13.820;2023-09-30T05:19:29;8.52;;;2.80;;
44842;SDS011;31884;52.538;13.820;2023-09-30T05:21:57;12.70;;;2.90;;
44842;SDS011;31884;52.538;13.820;2023-09-30T05:24:22;15.23;;;3.10;;
44842;SDS011;31884;52.538;13.820;2023-09-30T05:26:48;5.80;;;2.80;;
44842;SDS011;31884;52.538;13.820;2023-09-30T05:29:13;10.20;;;2.92;;
44842;SDS011;31884;52.538;13.820;2023-09-30T05:31:39;8.27;;;2.50;;
44842;SDS011;31884;52.538;13.820;2023-09-30T05:34:04;7.93;;;2.50;;
44842;SDS011;31884;52.538;13.820;2023-09-30T05:36:30;7.05;;;2.70;;
44842;SDS011;31884;52.538;13.820;2023-09-30T05:38:55;11.18;;;2.80;;
44842;SDS011;31884;52.538;13.820;2023-09-30T05:41:21;8.57;;;3.05;;
44842;SDS011;31884;52.538;13.820;2023-09-30T05:43:47;9.23;;;3.05;;
44842;SDS011;31884;52.538;13.820;2023-09-30T05:46:12;6.63;;;2.60;;
44842;SDS011;31884;52.538;13.820;2023-09-30T05:48:40;8.60;;;2.90;;
44842;SDS011;31884;52.538;13.820;2023-09-30T05:51:06;6.57;;;2.10;;
44842;SDS011;31884;52.538;13.820;2023-09-30T05:53:32;8.32;;;2.92;;
44842;SDS011;31884;52.538;13.820;2023-09-30T05:55:58;9.23;;;2.25;;
44842;SDS011;31884;52.538;13.820;2023-09-30T05:58:24;6.18;;;2.10;;
44842;SDS011;31884;52.538;13.820;2023-09-30T06:00:51;5.93;;;1.77;;
44842;SDS011;31884;52.538;13.820;2023-09-30T06:03:18;6.45;;;2.65;;
44842;SDS011;31884;52.538;13.820;2023-09-30T06:05:43;6.72;;;2.50;;
44842;SDS011;31884;52.538;13.820;2023-09-30T06:08:09;10.68;;;2.65;;
44842;SDS011;31884;52.538;13.820;2023-09-30T06:10:41;6.78;;;2.45;;
44842;SDS011;31884;52.538;13.820;2023-09-30T06:13:11;9.52;;;2.60;;
44842;SDS011;31884;52.538;13.820;2023-09-30T06:15:38;7.93;;;2.33;;
44842;SDS011;31884;52.538;13.820;2023-09-30T06:18:07;6.50;;;2.78;;
44842;SDS011;31884;52.538;13.820;2023-09-30T06:20:35;5.30;;;2.03;;
44842;SDS011;31884;52.538;13.820;2023-09-30T06:23:00;5.57;;;3.05;;
44842;SDS011;31884;52.538;13.820;2023-09-30T06:25:26;10.88;;;3.58;;
44842;SDS011;31884;52.538;13.820;2023-09-30T06:27:52;10.88;;;2.80;;
44842;SDS011;31884;52.538;13.820;2023-09-30T06:30:20;8.23;;;2.95;;
44842;SDS011;31884;52.538;13.820;2023-09-30T06:32:46;6.45;;;2.17;;
44842;SDS011;31884;52.538;13.820;2023-09-30T06:35:12;7.50;;;2.55;;
44842;SDS011;31884;52.538;13.820;2023-09-30T06:37:38;6.93;;;2.50;;
44842;SDS011;31884;52.538;13.820;2023-09-30T06:40:08;7.30;;;2.70;;
44842;SDS011;31884;52.538;13.820;2023-09-30T06:42:36;6.85;;;2.47;;
44842;SDS011;31884;52.538;13.820;2023-09-30T06:45:02;6.53;;;2.47;;
44842;SDS011;31884;52.538;13.820;2023-09-30T06:47:32;7.35;;;2.10;;
44842;SDS011;31884;52.538;13.820;2023-09-30T06:50:07;7.82;;;2.90;;
44842;SDS011;31884;52.538;13.820;2023-09-30T06:52:35;7.43;;;2.50;;
44842;SDS011;31884;52.538;13.820;2023-09-30T06:55:04;8.10;;;2.60;;
44842;SDS011;31884;52.538;13.820;2023-09-30T06:57:32;8.40;;;2.40;;
44842;SDS011;31884;52.538;13.820;2023-09-30T06:59:58;7.55;;;3.05;;
44842;SDS011;31884;52.538;13.820;2023-09-30T07:02:24;10.43;;;2.50;;
44842;SDS011;31884;52.538;13.820;2023-09-30T07:04:49;5.95;;;2.25;;
44842;SDS011;31884;52.538;13.820;2023-09-30T07:07:16;8.82;;;2.83;;
44842;SDS011;31884;52.538;13.820;2023-09-30T07:09:43;4.60;;;2.25;;
44842;SDS011;31884;52.538;13.820;2023-09-30T07:12:08;6.05;;;2.35;;
44842;SDS011;31884;52.538;13.820;2023-09-30T07:14:37;5.78;;;2.50;;
44842;SDS011;31884;52.538;13.820;2023-09-30T07:17:08;8.15;;;2.95;;
44842;SDS011;31884;52.538;13.820;2023-09-30T07:19:36;7.22;;;2.63;;
44842;SDS011;31884;52.538;13.820;2023-09-30T07:22:02;9.98;;;2.63;;
44842;SDS011;31884;52.538;13.820;2023-09-30T07:24:28;8.35;;;3.30;;
44842;SDS011;31884;52.538;13.820;2023-09-30T07:26:53;9.65;;;3.17;;
44842;SDS011;31884;52.538;13.820;2023-09-30T07:29:19;10.57;;;3.00;;
44842;SDS011;31884;52.538;13.820;2023-09-30T07:31:44;8.50;;;2.70;;
44842;SDS011;31884;52.538;13.820;2023-09-30T07:34:09;10.30;;;3.20;;
44842;SDS011;31884;52.538;13.820;2023-09-30T07:36:35;6.03;;;2.45;;
44842;SDS011;31884;52.538;13.820;2023-09-30T07:39:06;6.25;;;2.20;;
44842;SDS011;31884;52.538;13.820;2023-09-30T07:41:38;7.38;;;2.83;;
44842;SDS011;31884;52.538;13.820;2023-09-30T07:44:03;8.75;;;2.45;;
44842;SDS011;31884;52.538;13.820;2023-09-30T07:46:30;8.00;;;2.40;;
44842;SDS011;31884;52.538;13.820;2023-09-30T07:48:55;7.90;;;2.95;;
44842;SDS011;31884;52.538;13.820;2023-09-30T07:51:23;5.43;;;2.40;;
44842;SDS011;31884;52.538;13.820;2023-09-30T07:53:49;7.32;;;2.53;;
44842;SDS011;31884;52.538;13.820;2023-09-30T07:56:15;7.15;;;2.83;;
44842;SDS011;31884;52.538;13.820;2023-09-30T07:58:41;7.40;;;3.00;;
44842;SDS011;31884;52.538;13.820;2023-09-30T08:01:07;8.52;;;2.50;;
44842;SDS011;31884;52.538;13.820;2023-09-30T08:03:33;10.38;;;2.83;;
44842;SDS011;31884;52.538;13.820;2023-09-30T08:05:59;8.95;;;2.55;;
44842;SDS011;31884;52.538;13.820;2023-09-30T08:08:25;6.28;;;2.50;;
44842;SDS011;31884;52.538;13.820;2023-09-30T08:10:50;10.48;;;2.80;;
44842;SDS011;31884;52.538;13.820;2023-09-30T08:13:20;9.35;;;2.88;;
44842;SDS011;31884;52.538;13.820;2023-09-30T08:15:47;8.60;;;3.00;;
44842;SDS011;31884;52.538;13.820;2023-09-30T08:18:13;6.05;;;2.13;;
44842;SDS011;31884;52.538;13.820;2023-09-30T08:20:41;7.18;;;2.85;;
44842;SDS011;31884;52.538;13.820;2023-09-30T08:23:07;8.68;;;1.90;;
44842;SDS011;31884;52.538;13.820;2023-09-30T08:25:32;8.40;;;2.15;;
44842;SDS011;31884;52.538;13.820;2023-09-30T08:27:58;5.70;;;2.30;;
44842;SDS011;31884;52.538;13.820;2023-09-30T08:30:23;8.35;;;2.63;;
44842;SDS011;31884;52.538;13.820;2023-09-30T08:32:49;5.35;;;2.22;;
44842;SDS011;31884;52.538;13.820;2023-09-30T08:35:15;5.47;;;1.83;;
44842;SDS011;31884;52.538;13.820;2023-09-30T08:37:40;9.07;;;2.33;;
44842;SDS011;31884;52.538;13.820;2023-09-30T08:40:06;8.23;;;2.53;;
44842;SDS011;31884;52.538;13.820;2023-09-30T08:42:34;5.35;;;2.28;;
44842;SDS011;31884;52.538;13.820;2023-09-30T08:45:00;6.57;;;2.17;;
44842;SDS011;31884;52.538;13.820;2023-09-30T08:47:26;8.88;;;2.35;;
44842;SDS011;31884;52.538;13.820;2023-09-30T08:49:56;8.43;;;2.90;;
44842;SDS011;31884;52.538;13.820;2023-09-30T08:52:30;6.33;;;2.77;;
44842;SDS011;31884;52.538;13.820;2023-09-30T08:54:57;8.95;;;2.70;;
44842;SDS011;31884;52.538;13.820;2023-09-30T08:57:23;7.85;;;2.20;;
44842;SDS011;31884;52.538;13.820;2023-09-30T08:59:50;5.07;;;2.35;;
44842;SDS011;31884;52.538;13.820;2023-09-30T09:02:17;10.13;;;2.40;;
44842;SDS011;31884;52.538;13.820;2023-09-30T09:04:43;6.97;;;2.75;;
44842;SDS011;31884;52.538;13.820;2023-09-30T09:07:10;7.78;;;2.78;;
44842;SDS011;31884;52.538;13.820;2023-09-30T09:09:36;7.03;;;2.22;;
44842;SDS011;31884;52.538;13.820;2023-09-30T09:12:02;7.93;;;2.67;;
44842;SDS011;31884;52.538;13.820;2023-09-30T09:14:37;6.40;;;2.60;;
44842;SDS011;31884;52.538;13.820;2023-09-30T09:17:05;5.40;;;2.10;;
44842;SDS011;31884;52.538;13.820;2023-09-30T09:19:32;9.93;;;2.63;;
44842;SDS011;31884;52.538;13.820;2023-09-30T09:21:58;7.60;;;2.47;;
44842;SDS011;31884;52.538;13.820;2023-09-30T09:24:29;7.88;;;2.13;;
44842;SDS011;31884;52.538;13.820;2023-09-30T09:27:10;7.15;;;2.33;;
44842;SDS011;31884;52.538;13.820;2023-09-30T09:29:38;8.70;;;2.20;;
44842;SDS011;31884;52.538;13.820;2023-09-30T09:32:08;5.60;;;1.83;;
44842;SDS011;31884;52.538;13.820;2023-09-30T09:34:35;5.53;;;2.03;;
44842;SDS011;31884;52.538;13.820;2023-09-30T09:37:12;9.05;;;2.10;;
44842;SDS011;31884;52.538;13.820;2023-09-30T09:39:48;7.97;;;2.80;;
44842;SDS011;31884;52.538;13.820;2023-09-30T09:42:31;8.90;;;2.30;;
44842;SDS011;31884;52.538;13.820;2023-09-30T09:44:58;5.95;;;2.20;;
44842;SDS011;31884;52.538;13.820;2023-09-30T09:47:25;7.75;;;1.90;;
44842;SDS011;31884;52.538;13.820;2023-09-30T09:49:52;8.15;;;2.38;;
44842;SDS011;31884;52.538;13.820;2023-09-30T09:52:18;6.32;;;2.05;;
44842;SDS011;31884;52.538;13.820;2023-09-30T09:54:45;7.72;;;2.00;;
44842;SDS011;31884;52.538;13.820;2023-09-30T09:57:11;9.20;;;2.55;;
44842;SDS011;31884;52.538;13.820;2023-09-30T09:59:40;6.00;;;2.30;;
44842;SDS011;31884;52.538;13.820;2023-09-30T10:02:11;6.45;;;2.00;;
44842;SDS011;31884;52.538;13.820;2023-09-30T10:04:39;5.63;;;2.03;;
44842;SDS011;31884;52.538;13.820;2023-09-30T10:07:55;7.95;;;2.20;;
44842;SDS011;31884;52.538;13.820;2023-09-30T10:10:02;8.25;;;2.78;;
44842;SDS011;31884;52.538;13.820;2023-09-30T10:12:39;9.70;;;2.72;;
44842;SDS011;31884;52.538;13.820;2023-09-30T10:15:34;6.93;;;1.77;;
44842;SDS011;31884;52.538;13.820;2023-09-30T10:18:03;8.23;;;2.13;;
44842;SDS011;31884;52.538;13.820;2023-09-30T10:20:30;6.63;;;1.95;;
44842;SDS011;31884;52.538;13.820;2023-09-30T10:25:52;8.75;;;2.38;;
44842;SDS011;31884;52.538;13.820;2023-09-30T10:28:38;9.88;;;2.53;;
44842;SDS011;31884;52.538;13.820;2023-09-30T10:31:10;6.47;;;2.53;;
44842;SDS011;31884;52.538;13.820;2023-09-30T10:34:12;6.03;;;1.70;;
44842;SDS011;31884;52.538;13.820;2023-09-30T10:36:32;3.88;;;1.70;;
44842;SDS011;31884;52.538;13.820;2023-09-30T10:39:00;6.20;;;1.83;;
44842;SDS011;31884;52.538;13.820;2023-09-30T10:46:50;5.93;;;1.30;;
44842;SDS011;31884;52.538;13.820;2023-09-30T10:51:56;4.53;;;1.88;;
44842;SDS011;31884;52.538;13.820;2023-09-30T10:54:23;6.72;;;1.92;;
44842;SDS011;31884;52.538;13.820;2023-09-30T10:56:50;8.07;;;2.53;;
44842;SDS011;31884;52.538;13.820;2023-09-30T10:59:21;5.43;;;1.60;;
44842;SDS011;31884;52.538;13.820;2023-09-30T11:01:47;4.57;;;1.60;;
44842;SDS011;31884;52.538;13.820;2023-09-30T11:04:14;3.78;;;1.75;;
44842;SDS011;31884;52.538;13.820;2023-09-30T11:06:41;7.90;;;2.17;;
44842;SDS011;31884;52.538;13.820;2023-09-30T11:09:07;6.55;;;2.03;;
44842;SDS011;31884;52.538;13.820;2023-09-30T11:11:42;10.43;;;2.90;;
44842;SDS011;31884;52.538;13.820;2023-09-30T11:14:19;4.80;;;1.70;;
44842;SDS011;31884;52.538;13.820;2023-09-30T11:16:50;5.30;;;2.30;;
44842;SDS011;31884;52.538;13.820;2023-09-30T11:19:16;5.93;;;1.70;;
44842;SDS011;31884;52.538;13.820;2023-09-30T11:21:45;7.45;;;1.67;;
44842;SDS011;31884;52.538;13.820;2023-09-30T11:24:13;8.27;;;1.85;;
44842;SDS011;31884;52.538;13.820;2023-09-30T11:26:39;5.20;;;1.58;;
44842;SDS011;31884;52.538;13.820;2023-09-30T11:29:09;3.40;;;1.23;;
44842;SDS011;31884;52.538;13.820;2023-09-30T11:31:37;6.72;;;1.38;;
44842;SDS011;31884;52.538;13.820;2023-09-30T11:34:03;8.50;;;1.70;;
44842;SDS011;31884;52.538;13.820;2023-09-30T11:36:29;6.28;;;1.65;;
44842;SDS011;31884;52.538;13.820;2023-09-30T11:38:58;5.03;;;1.58;;
44842;SDS011;31884;52.538;13.820;2023-09-30T11:41:31;3.05;;;1.50;;
44842;SDS011;31884;52.538;13.820;2023-09-30T11:44:04;4.07;;;1.90;;
44842;SDS011;31884;52.538;13.820;2023-09-30T11:52:08;8.48;;;1.70;;
44842;SDS011;31884;52.538;13.820;2023-09-30T11:54:36;4.10;;;1.52;;
44842;SDS011;31884;52.538;13.820;2023-09-30T11:57:04;7.03;;;1.98;;
44842;SDS011;31884;52.538;13.820;2023-09-30T11:59:30;6.07;;;1.65;;
44842;SDS011;31884;52.538;13.820;2023-09-30T12:01:56;7.15;;;1.95;;
44842;SDS011;31884;52.538;13.820;2023-09-30T12:04:23;4.18;;;1.90;;
44842;SDS011;31884;52.538;13.820;2023-09-30T12:06:49;7.28;;;2.17;;
44842;SDS011;31884;52.538;13.820;2023-09-30T12:09:15;5.72;;;1.50;;
44842;SDS011;31884;52.538;13.820;2023-09-30T12:11:47;7.45;;;1.98;;
44842;SDS011;31884;52.538;13.820;2023-09-30T12:14:16;3.05;;;1.33;;
44842;SDS011;31884;52.538;13.820;2023-09-30T12:16:41;6.32;;;1.77;;
44842;SDS011;31884;52.538;13.820;2023-09-30T12:19:10;7.65;;;1.92;;
44842;SDS011;31884;52.538;13.820;2023-09-30T12:21:35;4.50;;;1.80;;
44842;SDS011;31884;52.538;13.820;2023-09-30T12:24:01;7.97;;;1.98;;
44842;SDS011;31884;52.538;13.820;2023-09-30T12:26:29;4.57;;;2.13;;
44842;SDS011;31884;52.538;13.820;2023-09-30T12:28:55;6.15;;;1.85;;
44842;SDS011;31884;52.538;13.820;2023-09-30T12:31:21;6.95;;;2.08;;
44842;SDS011;31884;52.538;13.820;2023-09-30T12:33:48;5.38;;;1.80;;
44842;SDS011;31884;52.538;13.820;2023-09-30T12:36:16;6.20;;;1.75;;
44842;SDS011;31884;52.538;13.820;2023-09-30T12:38:42;4.40;;;1.70;;
44842;SDS011;31884;52.538;13.820;2023-09-30T12:41:08;4.78;;;1.65;;
44842;SDS011;31884;52.538;13.820;2023-09-30T12:43:34;4.35;;;1.27;;
44842;SDS011;31884;52.538;13.820;2023-09-30T12:45:59;4.68;;;1.35;;
44842;SDS011;31884;52.538;13.820;2023-09-30T12:48:25;4.45;;;1.77;;
44842;SDS011;31884;52.538;13.820;2023-09-30T12:50:50;4.50;;;1.17;;
44842;SDS011;31884;52.538;13.820;2023-09-30T12:53:16;4.40;;;1.60;;
44842;SDS011;31884;52.538;13.820;2023-09-30T12:55:41;5.32;;;1.67;;
44842;SDS011;31884;52.538;13.820;2023-09-30T12:58:07;7.30;;;1.77;;
44842;SDS011;31884;52.538;13.820;2023-09-30T13:00:33;4.13;;;1.50;;
44842;SDS011;31884;52.538;13.820;2023-09-30T13:03:00;4.50;;;1.52;;
44842;SDS011;31884;52.538;13.820;2023-09-30T13:05:27;3.97;;;1.60;;
44842;SDS011;31884;52.538;13.820;2023-09-30T13:07:56;4.30;;;1.13;;
44842;SDS011;31884;52.538;13.820;2023-09-30T13:10:22;4.65;;;1.58;;
44842;SDS011;31884;52.538;13.820;2023-09-30T13:12:48;3.92;;;1.60;;
44842;SDS011;31884;52.538;13.820;2023-09-30T13:15:17;4.60;;;1.80;;
44842;SDS011;31884;52.538;13.820;2023-09-30T13:17:43;6.88;;;1.70;;
44842;SDS011;31884;52.538;13.820;2023-09-30T13:20:09;3.25;;;1.20;;
44842;SDS011;31884;52.538;13.820;2023-09-30T13:22:36;7.18;;;1.73;;
44842;SDS011;31884;52.538;13.820;2023-09-30T13:25:04;4.13;;;1.38;;
44842;SDS011;31884;52.538;13.820;2023-09-30T13:27:30;7.15;;;1.65;;
44842;SDS011;31884;52.538;13.820;2023-09-30T13:29:58;2.63;;;1.30;;
44842;SDS011;31884;52.538;13.820;2023-09-30T13:32:24;2.25;;;1.10;;
44842;SDS011;31884;52.538;13.820;2023-09-30T13:34:50;7.22;;;1.90;;
44842;SDS011;31884;52.538;13.820;2023-09-30T13:37:18;7.05;;;1.70;;
44842;SDS011;31884;52.538;13.820;2023-09-30T13:39:43;4.88;;;1.60;;
44842;SDS011;31884;52.538;13.820;2023-09-30T13:42:09;7.32;;;1.70;;
44842;SDS011;31884;52.538;13.820;2023-09-30T13:44:34;3.17;;;1.23;;
44842;SDS011;31884;52.538;13.820;2023-09-30T13:47:01;3.58;;;1.55;;
44842;SDS011;31884;52.538;13.820;2023-09-30T13:49:27;2.75;;;1.30;;
44842;SDS011;31884;52.538;13.820;2023-09-30T13:51:52;2.80;;;1.30;;
44842;SDS011;31884;52.538;13.820;2023-09-30T13:54:17;3.97;;;1.30;;
44842;SDS011;31884;52.538;13.820;2023-09-30T13:56:43;5.90;;;1.20;;
44842;SDS011;31884;52.538;13.820;2023-09-30T13:59:09;3.50;;;1.25;;
44842;SDS011;31884;52.538;13.820;2023-09-30T14:01:35;4.55;;;1.55;;
44842;SDS011;31884;52.538;13.820;2023-09-30T14:04:00;3.33;;;1.38;;
44842;SDS011;31884;52.538;13.820;2023-09-30T14:06:27;4.65;;;1.55;;
44842;SDS011;31884;52.538;13.820;2023-09-30T14:08:54;5.70;;;1.30;;
44842;SDS011;31884;52.538;13.820;2023-09-30T14:11:20;6.35;;;1.58;;
44842;SDS011;31884;52.538;13.820;2023-09-30T14:13:45;5.85;;;1.50;;
44842;SDS011;31884;52.538;13.820;2023-09-30T14:16:11;3.70;;;1.40;;
44842;SDS011;31884;52.538;13.820;2023-09-30T14:18:36;5.93;;;1.40;;
44842;SDS011;31884;52.538;13.820;2023-09-30T14:21:04;7.75;;;1.50;;
44842;SDS011;31884;52.538;13.820;2023-09-30T14:23:30;8.05;;;1.60;;
44842;SDS011;31884;52.538;13.820;2023-09-30T14:25:55;8.60;;;2.00;;
44842;SDS011;31884;52.538;13.820;2023-09-30T14:28:21;4.65;;;1.40;;
44842;SDS011;31884;52.538;13.820;2023-09-30T14:30:47;5.13;;;1.33;;
44842;SDS011;31884;52.538;13.820;2023-09-30T14:33:15;5.38;;;1.55;;
44842;SDS011;31884;52.538;13.820;2023-09-30T14:35:40;5.22;;;1.25;;
44842;SDS011;31884;52.538;13.820;2023-09-30T14:38:08;3.60;;;1.25;;
44842;SDS011;31884;52.538;13.820;2023-09-30T14:40:36;3.20;;;1.23;;
44842;SDS011;31884;52.538;13.820;2023-09-30T14:43:04;5.22;;;1.50;;
44842;SDS011;31884;52.538;13.820;2023-09-30T14:45:30;2.97;;;1.13;;
44842;SDS011;31884;52.538;13.820;2023-09-30T14:47:56;3.10;;;1.33;;
44842;SDS011;31884;52.538;13.820;2023-09-30T14:50:21;2.45;;;1.10;;
44842;SDS011;31884;52.538;13.820;2023-09-30T14:52:47;3.50;;;1.33;;